Time,TemperatureF,DewpointF,PressureIn,WindDirection,WindDirectionDegrees,WindSpeedMPH,WindSpeedGustMPH,Humidity,HourlyPrecipIn,Conditions,Clouds,dailyrainin,SoftwareType,DateUTC
2013-09-08 00:02:00,65.6,57.1,29.89,NW,319,0.0,0.0,74,0.00,,---,0.00,VWS V14.00,2013-09-08 04:02:00,
2013-09-08 00:03:00,65.6,57.1,29.89,NW,319,0.0,0.0,74,0.00,,---,0.00,VWS V14.00,2013-09-08 04:03:00,
2013-09-08 00:08:00,65.6,56.7,29.89,NW,319,0.0,0.0,73,0.00,,---,0.00,VWS V14.00,2013-09-08 04:08:00,
2013-09-08 00:13:00,65.6,57.1,29.89,NW,319,0.0,0.0,74,0.00,,---,0.00,VWS V14.00,2013-09-08 04:13:00,
2013-09-08 00:18:00,65.6,57.1,29.89,NW,319,0.0,0.0,74,0.00,,---,0.00,VWS V14.00,2013-09-08 04:18:00,
2013-09-08 00:23:00,65.6,57.5,29.89,NW,319,0.0,0.0,75,0.00,,---,0.00,VWS V14.00,2013-09-08 04:23:00,
2013-09-08 00:28:00,65.5,57.4,29.89,NW,318,0.0,0.0,75,0.00,,---,0.00,VWS V14.00,2013-09-08 04:28:00,
2013-09-08 00:33:00,65.5,57.4,29.89,NW,319,0.0,0.0,75,0.00,,---,0.00,VWS V14.00,2013-09-08 04:33:00,
2013-09-08 00:38:00,65.5,57.7,29.89,NW,318,0.0,0.0,76,0.00,,---,0.00,VWS V14.00,2013-09-08 04:38:00,
2013-09-08 00:43:00,65.4,57.3,29.89,NW,318,0.0,0.0,75,0.00,,---,0.00,VWS V14.00,2013-09-08 04:43:00,
2013-09-08 00:48:00,65.4,57.3,29.89,NW,319,0.0,0.0,75,0.00,,---,0.00,VWS V14.00,2013-09-08 04:48:00,
2013-09-08 00:53:00,65.5,57.4,29.89,NW,319,0.0,0.0,75,0.00,,---,0.00,VWS V14.00,2013-09-08 04:53:00,
2013-09-08 00:58:00,65.6,57.1,29.88,NW,319,0.0,0.0,74,0.00,,---,0.00,VWS V14.00,2013-09-08 04:58:00,
2013-09-08 01:03:00,65.7,57.9,29.88,NW,319,0.0,0.0,76,0.00,,---,0.00,VWS V14.00,2013-09-08 05:03:00,
2013-09-08 01:08:00,65.8,58.4,29.88,NW,319,0.0,0.0,77,0.00,,---,0.00,VWS V14.00,2013-09-08 05:08:00,
2013-09-08 01:13:00,65.7,57.9,29.88,NW,319,0.0,0.0,76,0.00,,---,0.00,VWS V14.00,2013-09-08 05:13:00,
2013-09-08 01:18:00,65.6,57.5,29.88,NW,319,0.0,0.0,75,0.00,,---,0.00,VWS V14.00,2013-09-08 05:18:00,
2013-09-08 01:23:00,65.6,57.8,29.88,NW,318,0.0,0.0,76,0.00,,---,0.00,VWS V14.00,2013-09-08 05:23:00,
2013-09-08 01:28:00,65.6,57.8,29.88,NW,319,0.0,0.0,76,0.00,,---,0.00,VWS V14.00,2013-09-08 05:28:00,
2013-09-08 01:33:00,65.5,57.0,29.88,NW,319,0.0,0.0,74,0.00,,---,0.00,VWS V14.00,2013-09-08 05:33:00,
2013-09-08 01:38:00,65.5,57.4,29.88,NW,319,0.0,0.0,75,0.00,,---,0.00,VWS V14.00,2013-09-08 05:38:00,
2013-09-08 01:43:00,65.5,58.1,29.88,NW,319,0.0,0.0,77,0.00,,---,0.00,VWS V14.00,2013-09-08 05:43:00,
2013-09-08 01:48:00,65.5,57.4,29.87,NW,318,0.0,0.0,75,0.00,,---,0.00,VWS V14.00,2013-09-08 05:48:00,
2013-09-08 01:54:00,65.5,57.0,29.87,NW,318,0.0,0.0,74,0.00,,---,0.00,VWS V14.00,2013-09-08 05:54:00,
2013-09-08 01:59:00,65.6,56.0,29.87,NW,319,0.0,0.0,71,0.00,,---,0.00,VWS V14.00,2013-09-08 05:59:00,
2013-09-08 02:04:00,65.7,56.0,29.87,NW,319,0.0,0.0,71,0.00,,---,0.00,VWS V14.00,2013-09-08 06:04:00,
2013-09-08 02:09:00,66.0,56.0,29.87,NW,319,0.0,0.0,70,0.00,,---,0.00,VWS V14.00,2013-09-08 06:09:00,
2013-09-08 02:14:00,66.2,56.5,29.87,NW,319,0.0,0.0,71,0.00,,---,0.00,VWS V14.00,2013-09-08 06:14:00,
2013-09-08 02:19:00,66.3,57.0,29.87,NW,319,0.0,0.0,72,0.00,,---,0.00,VWS V14.00,2013-09-08 06:19:00,
2013-09-08 02:24:00,66.2,57.3,29.87,NW,319,0.0,0.0,73,0.00,,---,0.00,VWS V14.00,2013-09-08 06:24:00,
2013-09-08 02:29:00,66.3,56.6,29.87,NW,319,0.0,0.0,71,0.00,,---,0.00,VWS V14.00,2013-09-08 06:29:00,
2013-09-08 02:34:00,66.5,56.4,29.87,NW,319,0.0,0.0,70,0.00,,---,0.00,VWS V14.00,2013-09-08 06:34:00,
2013-09-08 02:39:00,66.6,56.5,29.87,NW,319,0.0,0.0,70,0.00,,---,0.00,VWS V14.00,2013-09-08 06:39:00,
2013-09-08 02:44:00,66.8,56.7,29.87,NW,319,0.0,0.0,70,0.00,,---,0.00,VWS V14.00,2013-09-08 06:44:00,
2013-09-08 02:49:00,66.8,56.7,29.86,NW,319,0.0,0.0,70,0.00,,---,0.00,VWS V14.00,2013-09-08 06:49:00,
2013-09-08 02:54:00,66.8,56.7,29.87,NW,318,0.0,0.0,70,0.00,,---,0.00,VWS V14.00,2013-09-08 06:54:00,
2013-09-08 02:59:00,66.8,56.7,29.86,NW,319,0.0,0.0,70,0.00,,---,0.00,VWS V14.00,2013-09-08 06:59:00,
2013-09-08 03:04:00,66.8,56.7,29.86,NW,319,0.0,0.0,70,0.00,,---,0.00,VWS V14.00,2013-09-08 07:04:00,
2013-09-08 03:09:00,66.8,56.7,29.86,NW,319,0.0,0.0,70,0.00,,---,0.00,VWS V14.00,2013-09-08 07:09:00,
2013-09-08 03:14:00,66.9,56.8,29.86,NW,319,0.0,0.0,70,0.00,,---,0.00,VWS V14.00,2013-09-08 07:14:00,
2013-09-08 03:19:00,66.9,56.8,29.85,NW,319,0.0,0.0,70,0.00,,---,0.00,VWS V14.00,2013-09-08 07:19:00,
2013-09-08 03:24:00,66.9,56.8,29.85,NW,318,0.0,0.0,70,0.00,,---,0.00,VWS V14.00,2013-09-08 07:24:00,
2013-09-08 03:29:00,66.9,56.4,29.85,NW,318,0.0,0.0,69,0.00,,---,0.00,VWS V14.00,2013-09-08 07:29:00,
2013-09-08 03:34:00,66.9,56.4,29.85,NW,319,0.0,0.0,69,0.00,,---,0.00,VWS V14.00,2013-09-08 07:34:00,
2013-09-08 03:39:00,66.8,56.3,29.85,NW,319,0.0,0.0,69,0.00,,---,0.00,VWS V14.00,2013-09-08 07:39:00,
2013-09-08 03:44:00,66.7,57.0,29.84,NW,319,0.0,0.0,71,0.00,,---,0.00,VWS V14.00,2013-09-08 07:44:00,
2013-09-08 03:49:00,66.6,56.9,29.84,NW,318,0.0,0.0,71,0.00,,---,0.00,VWS V14.00,2013-09-08 07:49:00,
2013-09-08 03:54:00,66.5,56.4,29.84,NW,319,0.0,0.0,70,0.00,,---,0.00,VWS V14.00,2013-09-08 07:54:00,
2013-09-08 03:59:00,66.2,56.9,29.84,NW,319,0.0,0.0,72,0.00,,---,0.00,VWS V14.00,2013-09-08 07:59:00,
2013-09-08 04:04:00,66.0,57.1,29.84,NW,318,0.0,0.0,73,0.00,,---,0.00,VWS V14.00,2013-09-08 08:04:00,
2013-09-08 04:09:00,65.8,56.9,29.83,NW,319,0.0,0.0,73,0.00,,---,0.00,VWS V14.00,2013-09-08 08:09:00,
2013-09-08 04:14:00,65.6,56.7,29.83,NW,318,0.0,0.0,73,0.00,,---,0.00,VWS V14.00,2013-09-08 08:14:00,
2013-09-08 04:19:00,65.5,57.0,29.83,NW,318,0.0,0.0,74,0.00,,---,0.00,VWS V14.00,2013-09-08 08:19:00,
2013-09-08 04:24:00,65.4,56.9,29.83,NW,319,0.0,0.0,74,0.00,,---,0.00,VWS V14.00,2013-09-08 08:24:00,
2013-09-08 04:30:00,65.2,57.5,29.83,NW,319,0.0,0.0,76,0.00,,---,0.00,VWS V14.00,2013-09-08 08:30:00,
2013-09-08 04:35:00,65.1,57.4,29.84,NW,318,0.0,0.0,76,0.00,,---,0.00,VWS V14.00,2013-09-08 08:35:00,
2013-09-08 04:40:00,64.9,57.2,29.83,NW,319,0.0,0.0,76,0.00,,---,0.00,VWS V14.00,2013-09-08 08:40:00,
2013-09-08 04:45:00,64.8,57.4,29.83,NW,318,0.0,0.0,77,0.00,,---,0.00,VWS V14.00,2013-09-08 08:45:00,
2013-09-08 04:50:00,64.7,57.3,29.83,NW,319,0.0,0.0,77,0.00,,---,0.00,VWS V14.00,2013-09-08 08:50:00,
2013-09-08 04:55:00,64.6,57.2,29.83,NW,319,0.0,0.0,77,0.00,,---,0.00,VWS V14.00,2013-09-08 08:55:00,
2013-09-08 05:00:00,64.5,57.5,29.83,NW,318,0.0,0.0,78,0.00,,---,0.00,VWS V14.00,2013-09-08 09:00:00,
2013-09-08 05:05:00,64.4,57.4,29.83,NW,319,0.0,0.0,78,0.00,,---,0.00,VWS V14.00,2013-09-08 09:05:00,
2013-09-08 05:10:00,64.3,57.3,29.83,NW,319,0.0,0.0,78,0.00,,---,0.00,VWS V14.00,2013-09-08 09:10:00,
2013-09-08 05:15:00,64.3,57.3,29.83,NW,318,0.0,0.0,78,0.00,,---,0.00,VWS V14.00,2013-09-08 09:15:00,
2013-09-08 05:20:00,64.2,57.2,29.83,NW,318,0.0,1.0,78,0.00,,---,0.00,VWS V14.00,2013-09-08 09:20:00,
2013-09-08 05:25:00,64.1,57.1,29.83,NW,319,0.0,1.0,78,0.00,,---,0.00,VWS V14.00,2013-09-08 09:25:00,
2013-09-08 05:30:00,64.0,57.4,29.83,NW,319,0.0,0.0,79,0.00,,---,0.00,VWS V14.00,2013-09-08 09:30:00,
2013-09-08 05:35:00,64.0,57.4,29.83,NW,319,0.0,0.0,79,0.00,,---,0.00,VWS V14.00,2013-09-08 09:35:00,
2013-09-08 05:40:00,63.9,57.3,29.83,NW,319,0.0,0.0,79,0.00,,---,0.00,VWS V14.00,2013-09-08 09:40:00,
2013-09-08 05:45:00,63.8,57.2,29.82,NW,318,0.0,0.0,79,0.00,,---,0.00,VWS V14.00,2013-09-08 09:45:00,
2013-09-08 05:50:00,63.8,57.2,29.82,NW,319,0.0,0.0,79,0.00,,---,0.00,VWS V14.00,2013-09-08 09:50:00,
2013-09-08 05:55:00,63.8,57.2,29.82,NW,319,0.0,0.0,79,0.00,,---,0.00,VWS V14.00,2013-09-08 09:55:00,
2013-09-08 06:00:00,63.8,57.2,29.82,NW,318,0.0,0.0,79,0.00,,---,0.00,VWS V14.00,2013-09-08 10:00:00,
2013-09-08 06:05:00,63.9,57.3,29.82,NW,318,0.0,0.0,79,0.00,,---,0.00,VWS V14.00,2013-09-08 10:05:00,
2013-09-08 06:10:00,63.8,57.2,29.82,NW,319,0.0,0.0,79,0.00,,---,0.00,VWS V14.00,2013-09-08 10:10:00,
2013-09-08 06:15:00,63.7,57.1,29.82,NW,319,0.0,0.0,79,0.00,,---,0.00,VWS V14.00,2013-09-08 10:15:00,
2013-09-08 06:20:00,63.6,57.0,29.82,NW,318,0.0,0.0,79,0.00,,---,0.00,VWS V14.00,2013-09-08 10:20:00,
2013-09-08 06:25:00,63.4,57.1,29.82,NW,319,0.0,0.0,80,0.00,,---,0.00,VWS V14.00,2013-09-08 10:25:00,
2013-09-08 06:30:00,63.4,57.5,29.82,NW,319,0.0,0.0,81,0.00,,---,0.00,VWS V14.00,2013-09-08 10:30:00,
2013-09-08 06:35:00,63.3,57.4,29.82,NW,319,0.0,0.0,81,0.00,,---,0.00,VWS V14.00,2013-09-08 10:35:00,
2013-09-08 06:41:00,63.2,56.9,29.83,NW,318,0.0,0.0,80,0.00,,---,0.00,VWS V14.00,2013-09-08 10:41:00,
2013-09-08 06:46:00,63.2,57.3,29.83,NW,318,0.0,0.0,81,0.00,,---,0.00,VWS V14.00,2013-09-08 10:46:00,
2013-09-08 06:51:00,63.2,57.3,29.83,NW,319,0.0,0.0,81,0.00,,---,0.00,VWS V14.00,2013-09-08 10:51:00,
2013-09-08 06:56:00,63.1,57.2,29.84,NW,319,0.0,0.0,81,0.00,,---,0.00,VWS V14.00,2013-09-08 10:56:00,
2013-09-08 07:01:00,63.1,57.5,29.84,NW,318,0.0,0.0,82,0.00,,---,0.00,VWS V14.00,2013-09-08 11:01:00,
2013-09-08 07:06:00,63.2,57.6,29.84,NW,319,0.0,0.0,82,0.00,,---,0.00,VWS V14.00,2013-09-08 11:06:00,
2013-09-08 07:11:00,63.3,57.7,29.84,NW,319,0.0,0.0,82,0.00,,---,0.00,VWS V14.00,2013-09-08 11:11:00,
2013-09-08 07:16:00,63.5,57.9,29.84,NW,319,0.0,0.0,82,0.00,,---,0.00,VWS V14.00,2013-09-08 11:16:00,
2013-09-08 07:21:00,63.6,58.0,29.84,NW,319,0.0,0.0,82,0.00,,---,0.00,VWS V14.00,2013-09-08 11:21:00,
2013-09-08 07:26:00,63.8,57.9,29.84,NW,319,0.0,0.0,81,0.00,,---,0.00,VWS V14.00,2013-09-08 11:26:00,
2013-09-08 07:31:00,63.8,57.9,29.84,NW,318,0.0,0.0,81,0.00,,---,0.00,VWS V14.00,2013-09-08 11:31:00,
2013-09-08 07:36:00,63.9,58.0,29.84,NW,319,0.0,0.0,81,0.00,,---,0.00,VWS V14.00,2013-09-08 11:36:00,
2013-09-08 07:41:00,63.9,58.0,29.84,NW,318,0.0,0.0,81,0.00,,---,0.00,VWS V14.00,2013-09-08 11:41:00,
2013-09-08 07:46:00,63.9,58.0,29.84,NW,319,0.0,0.0,81,0.00,,---,0.00,VWS V14.00,2013-09-08 11:46:00,
2013-09-08 07:51:00,64.0,58.1,29.84,NW,318,0.0,0.0,81,0.00,,---,0.00,VWS V14.00,2013-09-08 11:51:00,
2013-09-08 07:56:00,64.1,58.5,29.84,NW,319,0.0,0.0,82,0.00,,---,0.00,VWS V14.00,2013-09-08 11:56:00,
2013-09-08 08:01:00,64.2,58.9,29.84,NW,319,0.0,0.0,83,0.00,,---,0.00,VWS V14.00,2013-09-08 12:01:00,
2013-09-08 08:06:00,64.2,58.9,29.84,NW,319,0.0,0.0,83,0.00,,---,0.00,VWS V14.00,2013-09-08 12:06:00,
2013-09-08 08:11:00,64.3,59.0,29.83,NW,319,0.0,0.0,83,0.00,,---,0.00,VWS V14.00,2013-09-08 12:11:00,
2013-09-08 08:16:00,64.5,58.9,29.83,NW,319,0.0,0.0,82,0.00,,---,0.00,VWS V14.00,2013-09-08 12:16:00,
2013-09-08 08:21:00,64.8,59.2,29.83,NW,319,0.0,0.0,82,0.00,,---,0.00,VWS V14.00,2013-09-08 12:21:00,
2013-09-08 08:26:00,65.2,58.9,29.83,NW,319,0.0,0.0,80,0.00,,---,0.00,VWS V14.00,2013-09-08 12:26:00,
2013-09-08 08:31:00,65.7,59.0,29.83,NW,319,0.0,0.0,79,0.00,,---,0.00,VWS V14.00,2013-09-08 12:31:00,
2013-09-08 08:36:00,66.1,59.0,29.83,NW,319,0.0,0.0,78,0.00,,---,0.00,VWS V14.00,2013-09-08 12:36:00,
2013-09-08 08:41:00,66.7,59.3,29.83,NW,319,0.0,0.0,77,0.00,,---,0.00,VWS V14.00,2013-09-08 12:41:00,
2013-09-08 08:46:00,67.3,59.5,29.83,NW,319,0.0,0.0,76,0.00,,---,0.00,VWS V14.00,2013-09-08 12:46:00,
2013-09-08 08:51:00,67.9,59.7,29.83,NW,319,0.0,0.0,75,0.00,,---,0.00,VWS V14.00,2013-09-08 12:51:00,
2013-09-08 08:56:00,68.5,59.9,29.83,NW,319,0.0,0.0,74,0.00,,---,0.00,VWS V14.00,2013-09-08 12:56:00,
2013-09-08 09:01:00,68.9,59.9,29.83,NW,319,0.0,0.0,73,0.00,,---,0.00,VWS V14.00,2013-09-08 13:01:00,
2013-09-08 09:07:00,69.2,59.8,29.83,NW,319,0.0,0.0,72,0.00,,---,0.00,VWS V14.00,2013-09-08 13:07:00,
2013-09-08 09:12:00,69.6,60.6,29.84,NW,319,0.0,0.0,73,0.00,,---,0.00,VWS V14.00,2013-09-08 13:12:00,
2013-09-08 09:17:00,70.0,61.3,29.83,NW,319,0.0,4.0,74,0.00,,---,0.00,VWS V14.00,2013-09-08 13:17:00,
2013-09-08 09:22:00,70.3,61.6,29.83,NW,319,0.0,4.0,74,0.00,,---,0.00,VWS V14.00,2013-09-08 13:22:00,
2013-09-08 09:27:00,70.7,61.2,29.84,NW,319,0.0,4.0,72,0.00,,---,0.00,VWS V14.00,2013-09-08 13:27:00,
2013-09-08 09:32:00,71.0,61.5,29.84,NW,319,0.0,0.0,72,0.00,,---,0.00,VWS V14.00,2013-09-08 13:32:00,
2013-09-08 09:37:00,71.4,61.9,29.83,NW,319,0.0,0.0,72,0.00,,---,0.00,VWS V14.00,2013-09-08 13:37:00,
2013-09-08 09:42:00,71.8,62.7,29.83,NW,319,0.0,0.0,73,0.00,,---,0.00,VWS V14.00,2013-09-08 13:42:00,
2013-09-08 09:47:00,72.1,61.8,29.83,NW,319,0.0,0.0,70,0.00,,---,0.00,VWS V14.00,2013-09-08 13:47:00,
2013-09-08 09:52:00,72.6,62.3,29.83,NW,319,0.0,0.0,70,0.00,,---,0.00,VWS V14.00,2013-09-08 13:52:00,
2013-09-08 09:57:00,73.2,63.6,29.83,NW,319,0.0,0.0,72,0.00,,---,0.00,VWS V14.00,2013-09-08 13:57:00,
2013-09-08 10:02:00,73.6,62.8,29.83,NW,319,0.0,0.0,69,0.00,,---,0.00,VWS V14.00,2013-09-08 14:02:00,
2013-09-08 10:07:00,73.7,62.9,29.83,NW,319,1.0,1.0,69,0.00,,---,0.00,VWS V14.00,2013-09-08 14:07:00,
2013-09-08 10:12:00,73.5,63.1,29.83,NW,319,0.0,5.0,70,0.00,,---,0.00,VWS V14.00,2013-09-08 14:12:00,
2013-09-08 10:17:00,73.8,63.8,29.83,NW,319,0.0,5.0,71,0.00,,---,0.00,VWS V14.00,2013-09-08 14:17:00,
2013-09-08 10:22:00,74.1,63.3,29.82,NW,319,0.0,5.0,69,0.00,,---,0.00,VWS V14.00,2013-09-08 14:22:00,
2013-09-08 10:27:00,74.2,63.8,29.82,NW,319,0.0,5.0,70,0.00,,---,0.00,VWS V14.00,2013-09-08 14:27:00,
2013-09-08 10:32:00,74.4,63.6,29.82,NW,319,2.0,6.0,69,0.00,,---,0.00,VWS V14.00,2013-09-08 14:32:00,
2013-09-08 10:37:00,74.5,63.7,29.82,NW,322,4.0,6.0,69,0.00,,---,0.00,VWS V14.00,2013-09-08 14:37:00,
2013-09-08 10:42:00,74.5,64.1,29.82,NW,323,0.0,6.0,70,0.00,,---,0.00,VWS V14.00,2013-09-08 14:42:00,
2013-09-08 10:47:00,74.7,63.9,29.82,NW,323,0.0,6.0,69,0.00,,---,0.00,VWS V14.00,2013-09-08 14:47:00,
2013-09-08 10:52:00,74.9,64.1,29.82,NNW,329,0.0,6.0,69,0.00,,---,0.00,VWS V14.00,2013-09-08 14:52:00,
2013-09-08 10:57:00,75.1,63.8,29.82,NNW,329,2.0,6.0,68,0.00,,---,0.00,VWS V14.00,2013-09-08 14:57:00,
2013-09-08 11:02:00,75.2,63.9,29.82,North,351,0.0,2.0,68,0.00,,---,0.00,VWS V14.00,2013-09-08 15:02:00,
2013-09-08 11:07:00,75.5,64.6,29.82,North,351,0.0,2.0,69,0.00,,---,0.00,VWS V14.00,2013-09-08 15:07:00,
2013-09-08 11:12:00,75.7,64.4,29.81,North,355,0.0,4.0,68,0.00,,---,0.00,VWS V14.00,2013-09-08 15:12:00,
2013-09-08 11:17:00,76.1,64.4,29.81,North,355,0.0,4.0,67,0.00,,---,0.00,VWS V14.00,2013-09-08 15:17:00,
2013-09-08 11:22:00,76.4,65.1,29.82,NNW,331,2.0,4.0,68,0.00,,---,0.00,VWS V14.00,2013-09-08 15:22:00,
2013-09-08 11:28:00,76.5,64.3,29.82,North,355,1.0,5.0,66,0.00,,---,0.00,VWS V14.00,2013-09-08 15:28:00,
2013-09-08 11:33:00,76.7,65.3,29.82,North,355,6.0,6.0,68,0.00,,---,0.00,VWS V14.00,2013-09-08 15:33:00,
2013-09-08 11:38:00,76.6,64.8,29.82,NNW,347,4.0,6.0,67,0.00,,---,0.00,VWS V14.00,2013-09-08 15:38:00,
2013-09-08 11:43:00,76.7,64.9,29.82,North,360,1.0,6.0,67,0.00,,---,0.00,VWS V14.00,2013-09-08 15:43:00,
2013-09-08 11:48:00,77.0,65.6,29.82,North,355,0.0,6.0,68,0.00,,---,0.00,VWS V14.00,2013-09-08 15:48:00,
2013-09-08 11:53:00,77.0,64.3,29.82,NNW,340,5.0,7.0,65,0.00,,---,0.00,VWS V14.00,2013-09-08 15:53:00,
2013-09-08 11:58:00,76.9,64.2,29.82,NNW,339,1.0,10.0,65,0.00,,---,0.00,VWS V14.00,2013-09-08 15:58:00,
2013-09-08 12:03:00,76.6,64.4,29.82,North,355,2.0,8.0,66,0.00,,---,0.00,VWS V14.00,2013-09-08 16:03:00,
2013-09-08 12:08:00,76.4,64.6,29.82,North,355,2.0,8.0,67,0.00,,---,0.00,VWS V14.00,2013-09-08 16:08:00,
2013-09-08 12:13:00,76.3,65.4,29.82,North,360,0.0,8.0,69,0.00,,---,0.00,VWS V14.00,2013-09-08 16:13:00,
2013-09-08 12:18:00,76.4,64.6,29.82,NNW,344,2.0,8.0,67,0.00,,---,0.00,VWS V14.00,2013-09-08 16:18:00,
2013-09-08 12:23:00,76.0,64.7,29.82,North,349,4.0,8.0,68,0.00,,---,0.00,VWS V14.00,2013-09-08 16:23:00,
2013-09-08 12:28:00,75.8,64.5,29.82,NNW,342,0.0,0.0,68,0.00,,---,0.00,VWS V14.00,2013-09-08 16:28:00,
2013-09-08 12:33:00,76.0,64.3,29.82,NNW,348,0.0,5.0,67,0.00,,---,0.00,VWS V14.00,2013-09-08 16:33:00,
2013-09-08 12:38:00,76.1,64.8,29.82,NNW,348,0.0,5.0,68,0.00,,---,0.00,VWS V14.00,2013-09-08 16:38:00,
2013-09-08 12:43:00,76.6,64.4,29.82,NNW,348,0.0,5.0,66,0.00,,---,0.00,VWS V14.00,2013-09-08 16:43:00,
2013-09-08 12:48:00,76.7,64.5,29.82,NNW,348,4.0,5.0,66,0.00,,---,0.00,VWS V14.00,2013-09-08 16:48:00,
2013-09-08 12:53:00,76.7,64.1,29.82,NW,324,1.0,6.0,65,0.00,,---,0.00,VWS V14.00,2013-09-08 16:53:00,
2013-09-08 12:58:00,77.0,64.3,29.82,NW,324,2.0,2.0,65,0.00,,---,0.00,VWS V14.00,2013-09-08 16:58:00,
2013-09-08 13:03:00,77.2,63.2,29.82,NNW,344,4.0,8.0,62,0.00,,---,0.00,VWS V14.00,2013-09-08 17:03:00,
2013-09-08 13:08:00,77.5,63.9,29.82,NNW,342,2.0,8.0,63,0.00,,---,0.00,VWS V14.00,2013-09-08 17:08:00,
2013-09-08 13:13:00,77.7,63.2,29.82,NNW,344,6.0,8.0,61,0.00,,---,0.00,VWS V14.00,2013-09-08 17:13:00,
2013-09-08 13:18:00,77.9,64.8,29.82,NW,323,2.0,8.0,64,0.00,,---,0.00,VWS V14.00,2013-09-08 17:18:00,
2013-09-08 13:23:00,78.1,63.1,29.82,North,350,0.0,8.0,60,0.00,,---,0.00,VWS V14.00,2013-09-08 17:23:00,
2013-09-08 13:28:00,77.9,62.4,29.82,North,355,0.0,1.0,59,0.00,,---,0.00,VWS V14.00,2013-09-08 17:28:00,
2013-09-08 13:34:00,77.9,62.9,29.82,NNW,346,4.0,6.0,60,0.00,,---,0.00,VWS V14.00,2013-09-08 17:34:00,
2013-09-08 13:39:00,77.9,62.9,29.82,NNW,344,0.0,6.0,60,0.00,,---,0.00,VWS V14.00,2013-09-08 17:39:00,
2013-09-08 13:44:00,78.0,62.0,29.82,NNW,346,0.0,6.0,58,0.00,,---,0.00,VWS V14.00,2013-09-08 17:44:00,
2013-09-08 13:49:00,78.3,62.3,29.82,NNW,333,6.0,9.0,58,0.00,,---,0.00,VWS V14.00,2013-09-08 17:49:00,
2013-09-08 13:54:00,78.1,61.6,29.83,North,355,1.0,9.0,57,0.00,,---,0.00,VWS V14.00,2013-09-08 17:54:00,
2013-09-08 13:59:00,78.0,61.5,29.82,NNW,346,1.0,5.0,57,0.00,,---,0.00,VWS V14.00,2013-09-08 17:59:00,
2013-09-08 14:04:00,77.9,61.5,29.82,ENE,59,0.0,10.0,57,0.00,,---,0.00,VWS V14.00,2013-09-08 18:04:00,
2013-09-08 14:09:00,78.1,62.1,29.82,NW,325,4.0,10.0,58,0.00,,---,0.00,VWS V14.00,2013-09-08 18:09:00,
2013-09-08 14:14:00,78.5,61.5,29.82,NNW,342,5.0,10.0,56,0.00,,---,0.00,VWS V14.00,2013-09-08 18:14:00,
2013-09-08 14:19:00,78.7,61.7,29.83,NNW,342,6.0,10.0,56,0.00,,---,0.00,VWS V14.00,2013-09-08 18:19:00,
2013-09-08 14:24:00,78.6,60.6,29.83,NW,325,8.0,10.0,54,0.00,,---,0.00,VWS V14.00,2013-09-08 18:24:00,
2013-09-08 14:29:00,78.5,60.5,29.83,NNW,337,5.0,10.0,54,0.00,,---,0.00,VWS V14.00,2013-09-08 18:29:00,
2013-09-08 14:34:00,78.6,62.1,29.83,NNW,342,5.0,10.0,57,0.00,,---,0.00,VWS V14.00,2013-09-08 18:34:00,
2013-09-08 14:39:00,78.9,61.9,29.83,North,360,0.0,10.0,56,0.00,,---,0.00,VWS V14.00,2013-09-08 18:39:00,
2013-09-08 14:44:00,79.3,61.8,29.83,NNW,344,4.0,10.0,55,0.00,,---,0.00,VWS V14.00,2013-09-08 18:44:00,
2013-09-08 14:49:00,79.2,60.1,29.83,NNW,333,2.0,10.0,52,0.00,,---,0.00,VWS V14.00,2013-09-08 18:49:00,
2013-09-08 14:54:00,79.1,61.6,29.83,North,5,0.0,10.0,55,0.00,,---,0.00,VWS V14.00,2013-09-08 18:54:00,
2013-09-08 14:59:00,78.9,59.2,29.83,NNE,13,2.0,4.0,51,0.00,,---,0.00,VWS V14.00,2013-09-08 18:59:00,
2013-09-08 15:04:00,78.5,59.4,29.84,NNW,329,4.0,6.0,52,0.00,,---,0.00,VWS V14.00,2013-09-08 19:04:00,
2013-09-08 15:09:00,78.5,60.0,29.84,North,355,1.0,6.0,53,0.00,,---,0.00,VWS V14.00,2013-09-08 19:09:00,
2013-09-08 15:14:00,78.5,59.4,29.84,North,360,2.0,8.0,52,0.00,,---,0.00,VWS V14.00,2013-09-08 19:14:00,
2013-09-08 15:19:00,78.6,58.4,29.84,NNW,340,4.0,9.0,50,0.00,,---,0.00,VWS V14.00,2013-09-08 19:19:00,
2013-09-08 15:24:00,78.5,58.9,29.84,NNW,331,4.0,9.0,51,0.00,,---,0.00,VWS V14.00,2013-09-08 19:24:00,
2013-09-08 15:29:00,78.6,58.4,29.84,NNW,340,6.0,6.0,50,0.00,,---,0.00,VWS V14.00,2013-09-08 19:29:00,
2013-09-08 15:34:00,78.8,59.2,29.84,North,349,0.0,8.0,51,0.00,,---,0.00,VWS V14.00,2013-09-08 19:34:00,
2013-09-08 15:39:00,79.1,60.0,29.84,North,360,0.0,8.0,52,0.00,,---,0.00,VWS V14.00,2013-09-08 19:39:00,
2013-09-08 15:44:00,79.3,58.5,29.85,NNW,348,0.0,8.0,49,0.00,,---,0.00,VWS V14.00,2013-09-08 19:44:00,
2013-09-08 15:49:00,79.0,58.8,29.85,NNW,328,1.0,8.0,50,0.00,,---,0.00,VWS V14.00,2013-09-08 19:49:00,
2013-09-08 15:54:00,79.0,58.2,29.85,NNW,332,0.0,8.0,49,0.00,,---,0.00,VWS V14.00,2013-09-08 19:54:00,
2013-09-08 16:00:00,78.8,58.0,29.85,North,360,1.0,5.0,49,0.00,,---,0.00,VWS V14.00,2013-09-08 20:00:00,
2013-09-08 16:05:00,78.5,57.8,29.85,NNW,335,0.0,6.0,49,0.00,,---,0.00,VWS V14.00,2013-09-08 20:05:00,
2013-09-08 16:10:00,78.2,56.9,29.85,NNW,337,4.0,6.0,48,0.00,,---,0.00,VWS V14.00,2013-09-08 20:10:00,
2013-09-08 16:15:00,78.0,56.7,29.85,North,355,4.0,7.0,48,0.00,,---,0.00,VWS V14.00,2013-09-08 20:15:00,
2013-09-08 16:20:00,77.9,56.1,29.86,North,360,1.0,7.0,47,0.00,,---,0.00,VWS V14.00,2013-09-08 20:20:00,
2013-09-08 16:25:00,77.8,56.0,29.85,North,355,0.0,7.0,47,0.00,,---,0.00,VWS V14.00,2013-09-08 20:25:00,
2013-09-08 16:30:00,77.8,54.8,29.85,NNW,341,1.0,6.0,45,0.00,,---,0.00,VWS V14.00,2013-09-08 20:30:00,
2013-09-08 16:35:00,77.7,53.5,29.86,NNW,338,0.0,6.0,43,0.00,,---,0.00,VWS V14.00,2013-09-08 20:35:00,
2013-09-08 16:40:00,77.6,52.7,29.86,NNW,338,2.0,8.0,42,0.00,,---,0.00,VWS V14.00,2013-09-08 20:40:00,
2013-09-08 16:45:00,77.6,52.1,29.86,North,355,6.0,8.0,41,0.00,,---,0.00,VWS V14.00,2013-09-08 20:45:00,
2013-09-08 16:50:00,77.5,52.0,29.86,NNE,12,7.0,8.0,41,0.00,,---,0.00,VWS V14.00,2013-09-08 20:50:00,
2013-09-08 16:55:00,77.5,50.6,29.87,NNW,334,0.0,8.0,39,0.00,,---,0.00,VWS V14.00,2013-09-08 20:55:00,
2013-09-08 17:00:00,77.1,46.6,29.87,NNW,340,0.0,6.0,34,0.00,,---,0.00,VWS V14.00,2013-09-08 21:00:00,
2013-09-08 17:05:00,76.9,47.9,29.87,ESE,117,0.0,6.0,36,0.00,,---,0.00,VWS V14.00,2013-09-08 21:05:00,
2013-09-08 17:10:00,76.9,47.2,29.88,NW,317,0.0,6.0,35,0.00,,---,0.00,VWS V14.00,2013-09-08 21:10:00,
2013-09-08 17:15:00,76.7,47.0,29.88,NNW,336,0.0,9.0,35,0.00,,---,0.00,VWS V14.00,2013-09-08 21:15:00,
2013-09-08 17:20:00,76.6,48.4,29.88,North,360,0.0,9.0,37,0.00,,---,0.00,VWS V14.00,2013-09-08 21:20:00,
2013-09-08 17:25:00,76.5,46.8,29.88,North,355,2.0,9.0,35,0.00,,---,0.00,VWS V14.00,2013-09-08 21:25:00,
2013-09-08 17:30:00,76.4,46.8,29.89,North,360,2.0,5.0,35,0.00,,---,0.00,VWS V14.00,2013-09-08 21:30:00,
2013-09-08 17:35:00,76.3,46.7,29.89,NW,323,0.0,5.0,35,0.00,,---,0.00,VWS V14.00,2013-09-08 21:35:00,
2013-09-08 17:40:00,76.2,45.8,29.89,NW,313,0.0,5.0,34,0.00,,---,0.00,VWS V14.00,2013-09-08 21:40:00,
2013-09-08 17:45:00,76.1,47.2,29.89,NW,313,0.0,5.0,36,0.00,,---,0.00,VWS V14.00,2013-09-08 21:45:00,
2013-09-08 17:50:00,76.0,47.2,29.90,NNW,347,0.0,5.0,36,0.00,,---,0.00,VWS V14.00,2013-09-08 21:50:00,
2013-09-08 17:55:00,75.9,48.5,29.90,North,350,0.0,5.0,38,0.00,,---,0.00,VWS V14.00,2013-09-08 21:55:00,
2013-09-08 18:00:00,75.8,47.7,29.90,North,350,0.0,0.0,37,0.00,,---,0.00,VWS V14.00,2013-09-08 22:00:00,
2013-09-08 18:05:00,75.7,48.3,29.91,NNW,348,0.0,2.0,38,0.00,,---,0.00,VWS V14.00,2013-09-08 22:05:00,
2013-09-08 18:10:00,75.4,48.0,29.91,NNW,348,0.0,2.0,38,0.00,,---,0.00,VWS V14.00,2013-09-08 22:10:00,
2013-09-08 18:16:00,75.1,46.3,29.92,NNW,348,0.0,2.0,36,0.00,,---,0.00,VWS V14.00,2013-09-08 22:16:00,
2013-09-08 18:21:00,75.0,45.5,29.92,North,349,0.0,4.0,35,0.00,,---,0.00,VWS V14.00,2013-09-08 22:21:00,
2013-09-08 18:26:00,74.6,45.2,29.92,NNW,337,0.0,5.0,35,0.00,,---,0.00,VWS V14.00,2013-09-08 22:26:00,
2013-09-08 18:31:00,74.5,45.1,29.92,NE,51,0.0,0.0,35,0.00,,---,0.00,VWS V14.00,2013-09-08 22:31:00,
2013-09-08 18:36:00,74.3,44.9,29.92,ENE,57,0.0,4.0,35,0.00,,---,0.00,VWS V14.00,2013-09-08 22:36:00,
2013-09-08 18:41:00,74.1,45.5,29.93,NE,46,1.0,4.0,36,0.00,,---,0.00,VWS V14.00,2013-09-08 22:41:00,
2013-09-08 18:46:00,73.8,45.9,29.93,NNW,348,0.0,4.0,37,0.00,,---,0.00,VWS V14.00,2013-09-08 22:46:00,
2013-09-08 18:51:00,73.5,44.9,29.93,North,360,0.0,4.0,36,0.00,,---,0.00,VWS V14.00,2013-09-08 22:51:00,
2013-09-08 18:56:00,73.3,44.8,29.93,North,360,0.0,4.0,36,0.00,,---,0.00,VWS V14.00,2013-09-08 22:56:00,
2013-09-08 19:01:00,72.9,45.1,29.93,North,360,1.0,1.0,37,0.00,,---,0.00,VWS V14.00,2013-09-08 23:01:00,
2013-09-08 19:06:00,72.5,45.5,29.94,North,360,0.0,2.0,38,0.00,,---,0.00,VWS V14.00,2013-09-08 23:06:00,
2013-09-08 19:11:00,72.2,45.2,29.94,North,360,0.0,3.0,38,0.00,,---,0.00,VWS V14.00,2013-09-08 23:11:00,
2013-09-08 19:16:00,71.9,44.9,29.94,North,360,0.0,3.0,38,0.00,,---,0.00,VWS V14.00,2013-09-08 23:16:00,
2013-09-08 19:21:00,71.5,44.6,29.95,North,360,0.0,3.0,38,0.00,,---,0.00,VWS V14.00,2013-09-08 23:21:00,
2013-09-08 19:26:00,71.2,45.0,29.95,North,360,0.0,3.0,39,0.00,,---,0.00,VWS V14.00,2013-09-08 23:26:00,
2013-09-08 19:31:00,71.0,44.1,29.95,North,360,0.0,0.0,38,0.00,,---,0.00,VWS V14.00,2013-09-08 23:31:00,
2013-09-08 19:36:00,70.8,45.3,29.96,North,360,0.0,0.0,40,0.00,,---,0.00,VWS V14.00,2013-09-08 23:36:00,
2013-09-08 19:41:00,70.5,45.0,29.96,North,360,0.0,0.0,40,0.00,,---,0.00,VWS V14.00,2013-09-08 23:41:00,
2013-09-08 19:46:00,70.2,45.4,29.96,North,360,0.0,0.0,41,0.00,,---,0.00,VWS V14.00,2013-09-08 23:46:00,
2013-09-08 19:51:00,69.9,45.8,29.97,North,360,0.0,0.0,42,0.00,,---,0.00,VWS V14.00,2013-09-08 23:51:00,
2013-09-08 19:56:00,69.6,46.1,29.97,North,360,0.0,0.0,43,0.00,,---,0.00,VWS V14.00,2013-09-08 23:56:00,
2013-09-08 20:01:00,69.3,46.5,29.98,North,360,0.0,0.0,44,0.00,,---,0.00,VWS V14.00,2013-09-09 00:01:00,
2013-09-08 20:06:00,69.0,47.4,29.98,North,360,0.0,0.0,46,0.00,,---,0.00,VWS V14.00,2013-09-09 00:06:00,
2013-09-08 20:11:00,68.4,47.4,29.99,North,360,0.0,0.0,47,0.00,,---,0.00,VWS V14.00,2013-09-09 00:11:00,
2013-09-08 20:16:00,67.9,47.0,29.99,North,360,0.0,0.0,47,0.00,,---,0.00,VWS V14.00,2013-09-09 00:16:00,
2013-09-08 20:22:00,67.5,47.1,30.00,North,360,0.0,0.0,48,0.00,,---,0.00,VWS V14.00,2013-09-09 00:22:00,
2013-09-08 20:27:00,67.3,47.0,30.00,North,360,0.0,0.0,48,0.00,,---,0.00,VWS V14.00,2013-09-09 00:27:00,
2013-09-08 20:32:00,67.0,47.2,30.00,North,360,0.0,0.0,49,0.00,,---,0.00,VWS V14.00,2013-09-09 00:32:00,
2013-09-08 20:37:00,66.6,47.4,30.00,North,360,0.0,0.0,50,0.00,,---,0.00,VWS V14.00,2013-09-09 00:37:00,
2013-09-08 20:42:00,66.2,47.6,30.00,North,360,0.0,0.0,51,0.00,,---,0.00,VWS V14.00,2013-09-09 00:42:00,
2013-09-08 20:47:00,65.9,47.3,30.01,North,360,0.0,0.0,51,0.00,,---,0.00,VWS V14.00,2013-09-09 00:47:00,
2013-09-08 20:52:00,65.7,47.1,30.02,North,360,0.0,0.0,51,0.00,,---,0.00,VWS V14.00,2013-09-09 00:52:00,
2013-09-08 20:57:00,65.6,47.5,30.02,North,351,0.0,4.0,52,0.00,,---,0.00,VWS V14.00,2013-09-09 00:57:00,
2013-09-08 21:02:00,65.7,47.6,30.02,North,351,0.0,0.0,52,0.00,,---,0.00,VWS V14.00,2013-09-09 01:02:00,
2013-09-08 21:07:00,65.6,47.0,30.03,North,351,0.0,0.0,51,0.00,,---,0.00,VWS V14.00,2013-09-09 01:07:00,
2013-09-08 21:12:00,65.5,46.9,30.03,North,351,0.0,0.0,51,0.00,,---,0.00,VWS V14.00,2013-09-09 01:12:00,
2013-09-08 21:17:00,65.3,47.2,30.03,North,351,0.0,0.0,52,0.00,,---,0.00,VWS V14.00,2013-09-09 01:17:00,
2013-09-08 21:22:00,65.1,48.1,30.03,North,351,0.0,0.0,54,0.00,,---,0.00,VWS V14.00,2013-09-09 01:22:00,
2013-09-08 21:27:00,64.8,47.8,30.03,North,351,0.0,0.0,54,0.00,,---,0.00,VWS V14.00,2013-09-09 01:27:00,
2013-09-08 21:32:00,64.6,47.6,30.04,North,351,0.0,0.0,54,0.00,,---,0.00,VWS V14.00,2013-09-09 01:32:00,
2013-09-08 21:37:00,64.3,48.3,30.04,North,351,0.0,0.0,56,0.00,,---,0.00,VWS V14.00,2013-09-09 01:37:00,
2013-09-08 21:42:00,63.9,47.9,30.04,North,351,0.0,0.0,56,0.00,,---,0.00,VWS V14.00,2013-09-09 01:42:00,
2013-09-08 21:47:00,63.6,48.1,30.04,North,351,0.0,0.0,57,0.00,,---,0.00,VWS V14.00,2013-09-09 01:47:00,
2013-09-08 21:52:00,63.3,47.8,30.05,North,351,0.0,0.0,57,0.00,,---,0.00,VWS V14.00,2013-09-09 01:52:00,
2013-09-08 21:57:00,63.1,48.1,30.05,North,351,0.0,0.0,58,0.00,,---,0.00,VWS V14.00,2013-09-09 01:57:00,
2013-09-08 22:02:00,62.8,48.3,30.05,North,351,0.0,0.0,59,0.00,,---,0.00,VWS V14.00,2013-09-09 02:02:00,
2013-09-08 22:07:00,62.5,48.0,30.05,North,351,0.0,0.0,59,0.00,,---,0.00,VWS V14.00,2013-09-09 02:07:00,
2013-09-08 22:12:00,62.3,47.8,30.06,North,351,0.0,0.0,59,0.00,,---,0.00,VWS V14.00,2013-09-09 02:12:00,
2013-09-08 22:17:00,62.2,48.2,30.06,North,351,0.0,0.0,60,0.00,,---,0.00,VWS V14.00,2013-09-09 02:17:00,
2013-09-08 22:22:00,61.9,48.3,30.06,North,351,0.0,0.0,61,0.00,,---,0.00,VWS V14.00,2013-09-09 02:22:00,
2013-09-08 22:27:00,61.7,47.7,30.06,North,351,0.0,0.0,60,0.00,,---,0.00,VWS V14.00,2013-09-09 02:27:00,
2013-09-08 22:32:00,61.5,48.4,30.06,North,351,0.0,0.0,62,0.00,,---,0.00,VWS V14.00,2013-09-09 02:32:00,
2013-09-08 22:37:00,61.1,48.4,30.06,North,351,0.0,0.0,63,0.00,,---,0.00,VWS V14.00,2013-09-09 02:37:00,
2013-09-08 22:42:00,60.8,48.1,30.06,North,351,0.0,0.0,63,0.00,,---,0.00,VWS V14.00,2013-09-09 02:42:00,
2013-09-08 22:48:00,60.7,47.6,30.06,North,351,0.0,0.0,62,0.00,,---,0.00,VWS V14.00,2013-09-09 02:48:00,
2013-09-08 22:53:00,60.9,47.4,30.07,North,351,0.0,0.0,61,0.00,,---,0.00,VWS V14.00,2013-09-09 02:53:00,
2013-09-08 22:58:00,61.0,47.0,30.06,North,351,0.0,0.0,60,0.00,,---,0.00,VWS V14.00,2013-09-09 02:58:00,
2013-09-08 23:03:00,61.2,47.2,30.07,North,351,0.0,0.0,60,0.00,,---,0.00,VWS V14.00,2013-09-09 03:03:00,
2013-09-08 23:08:00,61.1,47.1,30.07,North,351,0.0,0.0,60,0.00,,---,0.00,VWS V14.00,2013-09-09 03:08:00,
2013-09-08 23:13:00,61.0,47.0,30.07,North,351,0.0,0.0,60,0.00,,---,0.00,VWS V14.00,2013-09-09 03:13:00,
2013-09-08 23:18:00,60.8,46.8,30.07,North,351,0.0,0.0,60,0.00,,---,0.00,VWS V14.00,2013-09-09 03:18:00,
2013-09-08 23:23:00,60.6,46.7,30.07,North,351,0.0,0.0,60,0.00,,---,0.00,VWS V14.00,2013-09-09 03:23:00,
2013-09-08 23:28:00,60.4,46.9,30.07,North,351,0.0,0.0,61,0.00,,---,0.00,VWS V14.00,2013-09-09 03:28:00,
2013-09-08 23:33:00,60.1,47.0,30.08,North,351,0.0,0.0,62,0.00,,---,0.00,VWS V14.00,2013-09-09 03:33:00,
2013-09-08 23:38:00,59.8,46.8,30.08,North,351,0.0,0.0,62,0.00,,---,0.00,VWS V14.00,2013-09-09 03:38:00,
2013-09-08 23:43:00,59.5,47.3,30.08,North,351,0.0,0.0,64,0.00,,---,0.00,VWS V14.00,2013-09-09 03:43:00,
2013-09-08 23:48:00,59.1,47.4,30.08,North,351,0.0,0.0,65,0.00,,---,0.00,VWS V14.00,2013-09-09 03:48:00,
2013-09-08 23:53:00,58.8,47.5,30.08,North,351,0.0,0.0,66,0.00,,---,0.00,VWS V14.00,2013-09-09 03:53:00,
2013-09-08 23:58:00,58.5,45.5,30.08,North,351,0.0,0.0,62,0.00,,---,0.00,VWS V14.00,2013-09-09 03:58:00,